createdAt,value
2018-12-17T00:00:19.217Z,61.25
2018-12-17T00:01:22.990Z,59.83
2018-12-17T00:02:26.769Z,61.50
2018-12-17T00:03:30.473Z,57.35
2018-12-17T00:04:34.241Z,61.35
2018-12-17T00:05:41.750Z,64.60
2018-12-17T00:06:43.767Z,59.50
2018-12-17T00:07:47.453Z,58.87
2018-12-17T00:08:51.150Z,58.95
2018-12-17T00:09:54.810Z,59.63
2018-12-17T00:10:59.281Z,61.45
2018-12-17T00:12:02.996Z,56.80
2018-12-17T00:13:06.615Z,58.58
2018-12-17T00:14:10.235Z,60.92
2018-12-17T00:15:14.018Z,55.63
2018-12-17T00:16:17.773Z,60.78
2018-12-17T00:17:21.477Z,60.73
2018-12-17T00:18:25.177Z,59.98
2018-12-17T00:19:28.791Z,57.23
2018-12-17T00:20:32.414Z,59.00
2018-12-17T00:21:36.053Z,57.60
2018-12-17T00:22:39.749Z,61.42
2018-12-17T00:23:43.444Z,61.35
2018-12-17T00:24:47.077Z,55.35
2018-12-17T00:25:50.777Z,58.75
2018-12-17T00:26:54.401Z,55.35
2018-12-17T00:27:58.127Z,65.40
2018-12-17T00:29:01.709Z,59.50
2018-12-17T00:30:05.997Z,58.30
2018-12-17T00:31:09.604Z,54.33
2018-12-17T00:32:13.308Z,57.67
2018-12-17T00:33:17.002Z,56.37
2018-12-17T00:34:20.662Z,55.60
2018-12-17T00:35:24.283Z,56.23
2018-12-17T00:36:27.910Z,57.62
2018-12-17T00:37:31.616Z,58.00
2018-12-17T00:38:36.269Z,56.37
2018-12-17T00:39:39.898Z,55.67
2018-12-17T00:40:43.670Z,55.80
2018-12-17T00:41:47.464Z,57.30
2018-12-17T00:42:51.169Z,59.48
2018-12-17T00:43:54.852Z,57.65
2018-12-17T00:44:58.543Z,57.40
2018-12-17T00:46:02.132Z,58.52
2018-12-17T00:47:05.756Z,55.23
2018-12-17T00:48:09.449Z,62.15
2018-12-17T00:49:13.149Z,64.05
2018-12-17T00:50:16.760Z,55.80
2018-12-17T00:51:20.889Z,57.78
2018-12-17T00:52:24.509Z,58.50
2018-12-17T00:53:28.302Z,61.92
2018-12-17T00:54:32.070Z,57.83
2018-12-17T00:55:35.791Z,60.15
2018-12-17T00:56:39.551Z,63.23
2018-12-17T00:57:43.253Z,63.30
2018-12-17T00:58:47.061Z,54.93
2018-12-17T00:59:50.645Z,64.20
2018-12-17T01:00:54.361Z,61.65
2018-12-17T01:01:58.288Z,57.25
2018-12-17T01:03:01.925Z,60.35
2018-12-17T01:04:05.622Z,63.02
2018-12-17T01:05:09.422Z,61.40
2018-12-17T01:06:13.029Z,57.73
2018-12-17T01:07:18.856Z,58.75
2018-12-17T01:08:22.655Z,63.70
2018-12-17T01:09:26.980Z,61.95
2018-12-17T01:10:30.765Z,66.30
2018-12-17T01:11:34.760Z,60.98
2018-12-17T01:12:38.398Z,62.55
2018-12-17T01:13:42.040Z,61.40
2018-12-17T01:14:45.677Z,62.73
2018-12-17T01:15:49.371Z,59.88
2018-12-17T01:16:53.116Z,61.70
2018-12-17T01:17:56.694Z,61.53
2018-12-17T01:19:00.321Z,62.75
2018-12-17T01:20:04.969Z,70.55
2018-12-17T01:21:08.658Z,58.73
2018-12-17T01:22:12.282Z,63.80
2018-12-17T01:23:15.938Z,63.85
2018-12-17T01:24:19.679Z,63.02
2018-12-17T01:25:23.373Z,66.55
2018-12-17T01:26:27.017Z,63.20
2018-12-17T01:27:31.171Z,57.67
2018-12-17T01:28:35.127Z,66.90
2018-12-17T01:29:38.765Z,64.65
2018-12-17T01:30:42.452Z,66.77
2018-12-17T01:31:46.033Z,59.03
2018-12-17T01:32:49.717Z,65.22
2018-12-17T01:33:53.357Z,66.77
2018-12-17T01:34:56.993Z,61.88
2018-12-17T01:36:00.635Z,66.00
2018-12-17T01:37:04.402Z,61.95
2018-12-17T01:38:08.173Z,63.95
2018-12-17T01:39:11.805Z,62.73
2018-12-17T01:40:15.565Z,58.45
2018-12-17T01:41:19.197Z,64.30
2018-12-17T01:42:22.971Z,63.40
2018-12-17T01:43:26.593Z,63.48
2018-12-17T01:44:30.385Z,66.50
2018-12-17T01:45:34.005Z,66.30
2018-12-17T01:46:37.743Z,63.80
2018-12-17T01:47:41.376Z,61.50
2018-12-17T01:48:45.009Z,61.42
2018-12-17T01:49:48.633Z,62.55
2018-12-17T01:50:52.364Z,64.95
2018-12-17T01:51:55.992Z,61.25
2018-12-17T01:52:59.601Z,60.38
2018-12-17T01:54:03.225Z,64.15
2018-12-17T01:55:07.013Z,61.10
2018-12-17T01:56:10.643Z,62.80
2018-12-17T01:57:14.361Z,63.28
2018-12-17T01:58:18.053Z,62.40
2018-12-17T01:59:21.660Z,59.58
2018-12-17T02:00:25.382Z,62.10
2018-12-17T02:01:29.018Z,64.60
2018-12-17T02:02:32.768Z,62.45
2018-12-17T02:03:36.427Z,57.48
2018-12-17T02:04:40.205Z,69.40
2018-12-17T02:05:43.837Z,60.15
2018-12-17T02:06:47.593Z,59.70
2018-12-17T02:07:51.218Z,59.30
2018-12-17T02:08:54.917Z,60.65
2018-12-17T02:09:58.621Z,66.33
2018-12-17T02:11:02.741Z,66.40
2018-12-17T02:12:06.501Z,65.65
2018-12-17T02:13:10.121Z,60.00
2018-12-17T02:14:13.809Z,58.70
2018-12-17T02:15:17.437Z,63.33
2018-12-17T02:16:21.239Z,61.13
2018-12-17T02:17:24.934Z,63.15
2018-12-17T02:18:28.627Z,62.23
2018-12-17T02:19:32.319Z,61.25
2018-12-17T02:20:36.001Z,63.73
2018-12-17T02:21:39.911Z,62.25
2018-12-17T02:22:43.569Z,66.57
2018-12-17T02:23:47.256Z,62.30
2018-12-17T02:24:50.891Z,66.05
2018-12-17T02:25:54.520Z,62.05
2018-12-17T02:26:58.156Z,63.80
2018-12-17T02:28:01.789Z,67.65
2018-12-17T02:29:05.485Z,65.80
2018-12-17T02:30:09.334Z,65.55
2018-12-17T02:31:13.100Z,66.65
2018-12-17T02:32:16.785Z,68.00
2018-12-17T02:33:20.423Z,66.55
2018-12-17T02:34:24.057Z,67.55
2018-12-17T02:35:27.676Z,65.10
2018-12-17T02:36:31.456Z,63.98
2018-12-17T02:37:35.069Z,67.17
2018-12-17T02:38:38.787Z,64.77
2018-12-17T02:39:42.376Z,65.40
2018-12-17T02:40:45.998Z,62.03
2018-12-17T02:41:49.706Z,65.83
2018-12-17T02:42:53.325Z,63.85
2018-12-17T02:43:57.220Z,65.52
2018-12-17T02:45:00.917Z,68.25
2018-12-17T02:46:04.530Z,65.32
2018-12-17T02:47:08.222Z,63.52
2018-12-17T02:48:11.910Z,64.65
2018-12-17T02:49:15.710Z,61.85
2018-12-17T02:50:19.405Z,63.17
2018-12-17T02:51:23.042Z,61.58
2018-12-17T02:52:26.657Z,62.45
2018-12-17T02:53:30.279Z,66.67
2018-12-17T02:54:34.169Z,66.95
2018-12-17T02:55:37.973Z,64.58
2018-12-17T02:56:41.665Z,62.50
2018-12-17T02:57:45.312Z,66.28
2018-12-17T02:58:48.935Z,59.30
2018-12-17T02:59:52.616Z,62.67
2018-12-17T03:00:56.383Z,67.42
2018-12-17T03:07:29.363Z,66.20
2018-12-17T03:08:33.126Z,69.25
2018-12-17T03:09:37.395Z,69.40
2018-12-17T03:10:41.023Z,65.28
2018-12-17T03:15:06.327Z,66.82
2018-12-17T03:16:09.933Z,74.55
2018-12-17T03:17:13.732Z,76.22
2018-12-17T03:18:17.418Z,72.95
2018-12-17T03:19:21.033Z,67.80
2018-12-17T03:20:24.898Z,79.12
2018-12-17T03:21:28.526Z,75.42
2018-12-17T03:22:32.144Z,78.42
2018-12-17T03:23:35.819Z,77.80
2018-12-17T03:24:39.590Z,73.47
2018-12-17T03:25:43.226Z,75.80
2018-12-17T03:26:47.955Z,73.75
2018-12-17T03:27:51.688Z,73.52
2018-12-17T03:28:55.384Z,72.78
2018-12-17T03:29:59.214Z,82.80
2018-12-17T03:31:02.977Z,75.60
2018-12-17T03:32:06.700Z,69.40
2018-12-17T03:33:10.444Z,71.77
2018-12-17T03:34:14.125Z,67.25
2018-12-17T03:35:17.877Z,78.05
2018-12-17T03:36:21.646Z,71.53
2018-12-17T03:37:25.217Z,70.32
2018-12-17T03:38:28.891Z,68.75
2018-12-17T03:39:32.572Z,78.85
2018-12-17T03:40:36.205Z,71.28
2018-12-17T03:41:39.827Z,72.40
2018-12-17T03:42:43.599Z,77.15
2018-12-17T03:43:47.280Z,71.53
2018-12-17T03:44:50.886Z,77.20
2018-12-17T03:45:54.660Z,77.62
2018-12-17T03:46:58.283Z,72.22
2018-12-17T03:48:01.961Z,79.07
2018-12-17T03:49:05.643Z,81.30
2018-12-17T03:50:09.388Z,79.17
2018-12-17T03:51:13.035Z,80.47
2018-12-17T03:52:16.729Z,81.25
2018-12-17T03:53:20.370Z,83.67
2018-12-17T03:54:23.997Z,82.35
2018-12-17T03:55:27.679Z,86.22
2018-12-17T03:56:31.394Z,76.95
2018-12-17T03:57:35.069Z,84.05
2018-12-17T03:58:38.767Z,86.42
2018-12-17T03:59:42.884Z,78.65
2018-12-17T04:00:46.463Z,86.50
2018-12-17T04:01:50.086Z,85.03
2018-12-17T04:02:53.773Z,78.30
2018-12-17T04:03:57.390Z,88.82
2018-12-17T04:05:01.227Z,83.20
2018-12-17T04:06:04.941Z,82.78
2018-12-17T04:07:08.537Z,79.20
2018-12-17T04:08:12.141Z,86.97
2018-12-17T04:09:15.897Z,84.67
2018-12-17T04:10:19.582Z,85.32
2018-12-17T04:11:23.279Z,85.17
2018-12-17T04:12:26.967Z,94.30
2018-12-17T04:13:30.654Z,82.05
2018-12-17T04:14:34.342Z,77.25
2018-12-17T04:15:38.186Z,91.28
2018-12-17T04:16:41.938Z,83.90
2018-12-17T04:17:45.562Z,82.62
2018-12-17T04:18:49.169Z,84.67
2018-12-17T04:19:52.826Z,85.42
2018-12-17T04:20:56.500Z,84.47
2018-12-17T04:22:00.115Z,79.72
2018-12-17T04:23:03.799Z,84.65
2018-12-17T04:24:07.472Z,84.67
2018-12-17T04:25:11.306Z,84.77
2018-12-17T04:26:14.999Z,85.42
2018-12-17T04:27:18.570Z,92.47
2018-12-17T04:28:22.187Z,84.07
2018-12-17T04:29:25.794Z,84.65
2018-12-17T04:30:29.441Z,89.70
2018-12-17T04:31:33.156Z,92.75
2018-12-17T04:32:36.745Z,99.55
2018-12-17T04:33:40.435Z,86.60
2018-12-17T04:34:44.131Z,96.72
2018-12-17T04:35:47.782Z,90.28
2018-12-17T04:36:51.478Z,83.87
2018-12-17T04:37:55.119Z,91.05
2018-12-17T04:38:58.748Z,88.80
2018-12-17T04:40:02.506Z,89.20
2018-12-17T04:41:06.184Z,96.63
2018-12-17T04:42:09.871Z,86.80
2018-12-17T04:43:13.498Z,98.65
2018-12-17T04:44:17.126Z,94.55
2018-12-17T04:45:20.753Z,97.02
2018-12-17T04:46:24.445Z,108.15
2018-12-17T04:47:28.283Z,107.70
2018-12-17T04:48:31.923Z,116.45
2018-12-17T04:49:35.586Z,118.02
2018-12-17T04:50:39.213Z,116.22
2018-12-17T04:51:42.825Z,114.47
2018-12-17T04:52:46.633Z,121.05
2018-12-17T04:53:50.251Z,117.30
2018-12-17T04:54:53.934Z,140.90
2018-12-17T04:55:57.551Z,125.33
2018-12-17T04:57:01.311Z,126.87
2018-12-17T04:58:05.475Z,134.25
2018-12-17T04:59:14.522Z,137.03
2018-12-17T05:00:14.820Z,125.05
2018-12-17T05:01:18.503Z,144.65
2018-12-17T05:02:22.177Z,139.20
2018-12-17T05:03:25.870Z,136.37
2018-12-17T05:04:29.498Z,166.85
2018-12-17T05:05:33.167Z,137.55
2018-12-17T05:06:36.818Z,135.37
2018-12-17T05:07:40.453Z,150.10
2018-12-17T05:08:44.148Z,257.60
2018-12-17T05:09:47.822Z,135.57
2018-12-17T05:10:51.511Z,164.72
2018-12-17T05:11:55.119Z,176.12
2018-12-17T05:12:58.857Z,170.75
2018-12-17T05:14:02.597Z,143.10
2018-12-17T05:15:06.403Z,165.40
2018-12-17T05:16:09.977Z,165.35
2018-12-17T05:17:13.607Z,186.82
2018-12-17T05:18:17.241Z,145.12
2018-12-17T05:19:20.936Z,193.40
2018-12-17T05:20:24.690Z,165.50
2018-12-17T05:21:28.369Z,202.32
2018-12-17T05:22:32.053Z,175.25
2018-12-17T05:23:35.754Z,188.37
2018-12-17T05:24:39.437Z,227.72
2018-12-17T05:25:43.115Z,211.15
2018-12-17T05:26:46.726Z,212.57
2018-12-17T05:27:50.370Z,308.38
2018-12-17T05:28:53.998Z,172.02
2018-12-17T05:29:58.296Z,200.90
2018-12-17T05:31:01.927Z,242.25
2018-12-17T05:32:05.674Z,236.85
2018-12-17T05:33:09.434Z,245.05
2018-12-17T05:34:13.059Z,231.40
2018-12-17T05:35:16.768Z,238.62
2018-12-17T05:36:20.461Z,209.15
2018-12-17T05:37:24.053Z,210.70
2018-12-17T05:38:27.673Z,204.85
2018-12-17T05:39:31.293Z,178.85
2018-12-17T05:40:35.019Z,177.53
2018-12-17T05:41:38.632Z,177.10
2018-12-17T05:42:42.249Z,203.73
2018-12-17T05:43:45.867Z,188.12
2018-12-17T05:44:49.561Z,157.88
2018-12-17T05:45:53.288Z,155.57
2018-12-17T05:46:56.979Z,160.78
2018-12-17T05:48:00.617Z,178.93
2018-12-17T05:49:04.317Z,170.75
2018-12-17T05:50:08.072Z,185.10
2018-12-17T05:51:11.683Z,183.05
2018-12-17T05:52:15.369Z,162.12
2018-12-17T05:53:18.993Z,154.50
2018-12-17T05:54:22.622Z,190.97
2018-12-17T05:55:26.236Z,166.47
2018-12-17T05:56:29.946Z,166.73
2018-12-17T05:57:33.637Z,170.60
2018-12-17T05:58:37.261Z,182.43
2018-12-17T05:59:40.950Z,173.25
2018-12-17T06:00:44.680Z,158.12
2018-12-17T06:01:48.330Z,184.97
2018-12-17T06:02:52.062Z,172.30
2018-12-17T06:03:55.671Z,150.75
2018-12-17T06:04:59.362Z,162.90
2018-12-17T06:06:02.989Z,174.75
2018-12-17T06:07:06.742Z,164.37
2018-12-17T06:08:12.833Z,192.55
2018-12-17T06:09:16.689Z,163.45
2018-12-17T06:10:20.319Z,171.55
2018-12-17T06:11:23.929Z,187.92
2018-12-17T06:12:27.615Z,222.90
2018-12-17T06:13:31.297Z,160.12
2018-12-17T06:14:35.008Z,176.05
2018-12-17T06:15:38.729Z,242.53
2018-12-17T06:16:42.417Z,159.97
2018-12-17T06:17:46.030Z,171.53
2018-12-17T06:18:49.670Z,231.13
2018-12-17T06:19:53.374Z,167.62
2018-12-17T06:20:57.229Z,167.47
2018-12-17T06:22:00.846Z,227.93
2018-12-17T06:23:04.562Z,183.35
2018-12-17T06:24:08.273Z,157.45
2018-12-17T06:25:11.967Z,190.20
2018-12-17T06:26:15.578Z,175.53
2018-12-17T06:27:19.257Z,148.35
2018-12-17T06:28:22.881Z,192.03
2018-12-17T06:29:26.508Z,151.95
2018-12-17T06:30:30.261Z,172.35
2018-12-17T06:31:33.874Z,183.78
2018-12-17T06:32:37.485Z,176.95
2018-12-17T06:33:41.106Z,201.10
2018-12-17T06:34:44.726Z,161.60
2018-12-17T06:35:48.381Z,158.80
2018-12-17T06:36:52.075Z,157.62
2018-12-17T06:37:55.665Z,158.75
2018-12-17T06:38:59.290Z,187.40
2018-12-17T06:40:09.905Z,174.85
2018-12-17T06:41:08.593Z,200.50
2018-12-17T06:42:12.383Z,145.47
2018-12-17T06:43:16.106Z,157.40
2018-12-17T06:44:19.751Z,148.70
2018-12-17T06:45:23.373Z,148.15
2018-12-17T06:46:26.987Z,152.25
2018-12-17T06:47:30.597Z,190.40
2018-12-17T06:48:34.437Z,164.72
2018-12-17T06:49:38.024Z,157.90
2018-12-17T06:50:41.645Z,142.50
2018-12-17T06:51:45.618Z,153.12
2018-12-17T06:52:49.308Z,149.72
2018-12-17T06:53:52.889Z,162.50
2018-12-17T06:54:56.565Z,174.40
2018-12-17T06:56:00.185Z,145.80
2018-12-17T06:57:03.873Z,162.00
2018-12-17T06:58:07.750Z,171.90
2018-12-17T06:59:11.370Z,171.30
2018-12-17T07:00:15.013Z,179.30
2018-12-17T07:01:18.647Z,151.55
2018-12-17T07:02:23.093Z,144.43
2018-12-17T07:03:26.790Z,141.22
2018-12-17T07:04:30.409Z,163.70
2018-12-17T07:05:34.661Z,158.25
2018-12-17T07:06:38.341Z,150.87
2018-12-17T07:07:41.958Z,164.72
2018-12-17T07:08:45.614Z,156.32
2018-12-17T07:09:49.314Z,175.93
2018-12-17T07:10:53.034Z,161.10
2018-12-17T07:11:56.780Z,147.00
2018-12-17T07:13:00.410Z,155.55
2018-12-17T07:14:04.173Z,161.52
2018-12-17T07:15:07.944Z,152.97
2018-12-17T07:16:11.635Z,160.65
2018-12-17T07:17:15.250Z,185.73
2018-12-17T07:18:18.941Z,177.12
2018-12-17T07:19:22.650Z,181.95
2018-12-17T07:20:26.343Z,152.15
2018-12-17T07:21:29.932Z,182.12
2018-12-17T07:22:33.549Z,169.28
2018-12-17T07:23:37.165Z,184.65
2018-12-17T07:24:40.789Z,164.00
2018-12-17T07:25:44.494Z,166.50
2018-12-17T07:26:48.190Z,161.73
2018-12-17T07:27:51.869Z,194.25
2018-12-17T07:28:55.612Z,196.65
2018-12-17T07:29:59.270Z,172.55
2018-12-17T07:31:02.973Z,158.57
2018-12-17T07:32:06.657Z,197.28
2018-12-17T07:33:10.277Z,179.00
2018-12-17T07:34:13.973Z,186.45
2018-12-17T07:35:17.597Z,213.45
2018-12-17T07:36:21.388Z,197.35
2018-12-17T07:37:25.130Z,182.15
2018-12-17T07:38:28.823Z,206.78
2018-12-17T07:39:32.981Z,179.53
2018-12-17T07:40:36.617Z,167.32
2018-12-17T07:41:40.313Z,219.28
2018-12-17T07:42:43.998Z,207.30
2018-12-17T07:43:47.617Z,196.10
2018-12-17T07:44:51.263Z,178.57
2018-12-17T07:45:54.953Z,209.83
2018-12-17T07:46:58.637Z,248.10
2018-12-17T07:48:02.326Z,176.70
2018-12-17T07:49:06.031Z,188.95
2018-12-17T07:50:09.797Z,188.50
2018-12-17T07:51:13.421Z,183.75
2018-12-17T07:52:17.122Z,201.07
2018-12-17T07:53:20.821Z,167.47
2018-12-17T07:54:24.515Z,171.40
2018-12-17T07:55:28.104Z,223.40
2018-12-17T07:56:31.933Z,158.93
2018-12-17T07:57:35.700Z,273.32
2018-12-17T07:58:39.369Z,181.28
2018-12-17T07:59:42.985Z,243.42
2018-12-17T08:00:46.737Z,227.13
2018-12-17T08:01:50.450Z,181.00
2018-12-17T08:02:54.061Z,214.63
2018-12-17T08:03:57.758Z,188.12
2018-12-17T08:05:01.453Z,192.15
2018-12-17T08:06:05.142Z,203.07
2018-12-17T08:07:08.834Z,250.13
2018-12-17T08:08:12.622Z,263.02
2018-12-17T08:09:16.209Z,194.47
2018-12-17T08:10:19.876Z,330.02
2018-12-17T08:11:23.507Z,236.55
2018-12-17T08:12:27.193Z,217.72
2018-12-17T08:13:31.005Z,235.02
2018-12-17T08:14:34.645Z,227.25
2018-12-17T08:15:38.350Z,193.28
2018-12-17T08:16:42.049Z,210.63
2018-12-17T08:17:45.828Z,211.28
2018-12-17T08:18:49.935Z,199.20
2018-12-17T08:19:53.618Z,432.43
2018-12-17T08:20:57.242Z,184.48
2018-12-17T08:22:00.885Z,260.35
2018-12-17T08:23:04.732Z,182.15
2018-12-17T08:24:08.420Z,183.03
2018-12-17T08:25:12.067Z,177.82
2018-12-17T08:26:15.911Z,205.32
2018-12-17T08:27:19.489Z,243.15
2018-12-17T08:28:23.110Z,219.85
2018-12-17T08:29:26.801Z,176.15
2018-12-17T08:30:30.562Z,168.47
2018-12-17T08:31:34.317Z,251.80
2018-12-17T08:32:37.945Z,195.70
2018-12-17T08:33:41.586Z,172.78
2018-12-17T08:34:45.245Z,189.05
2018-12-17T08:35:49.041Z,208.47
2018-12-17T08:36:52.632Z,295.23
2018-12-17T08:37:56.322Z,261.15
2018-12-17T08:38:59.943Z,205.72
2018-12-17T08:40:03.929Z,173.13
2018-12-17T08:41:07.686Z,188.85
2018-12-17T08:42:11.381Z,276.88
2018-12-17T08:43:15.010Z,211.90
2018-12-17T08:44:18.692Z,269.40
2018-12-17T08:45:22.365Z,176.70
2018-12-17T08:46:26.140Z,238.82
2018-12-17T08:47:30.839Z,192.90
2018-12-17T08:48:34.583Z,183.60
2018-12-17T08:49:38.261Z,176.82
2018-12-17T08:50:41.960Z,177.72
2018-12-17T08:51:45.661Z,187.72
2018-12-17T08:52:49.247Z,200.65
2018-12-17T08:53:53.178Z,174.90
2018-12-17T08:54:57.095Z,190.47
2018-12-17T08:56:01.243Z,186.05
2018-12-17T08:57:05.085Z,173.25
2018-12-17T08:58:08.890Z,253.27
2018-12-17T08:59:12.512Z,167.85
2018-12-17T09:00:16.274Z,199.95
2018-12-17T09:01:20.125Z,215.97
2018-12-17T09:02:23.862Z,170.35
2018-12-17T09:03:27.715Z,194.55
2018-12-17T09:04:31.407Z,160.82
2018-12-17T09:05:35.065Z,157.90
2018-12-17T09:06:38.818Z,150.53
2018-12-17T09:07:42.521Z,161.97
2018-12-17T09:08:46.308Z,170.47
2018-12-17T09:09:49.929Z,208.68
2018-12-17T09:10:53.566Z,163.62
2018-12-17T09:11:57.359Z,167.30
2018-12-17T09:13:01.077Z,166.92
2018-12-17T09:14:04.834Z,145.50
2018-12-17T09:15:08.939Z,160.82
2018-12-17T09:16:12.584Z,148.13
2018-12-17T09:17:16.218Z,147.40
2018-12-17T09:18:19.987Z,150.60
2018-12-17T09:19:23.745Z,153.35
2018-12-17T09:20:27.517Z,148.45
2018-12-17T09:21:31.311Z,143.97
2018-12-17T09:22:35.029Z,141.13
2018-12-17T09:23:38.721Z,160.97
2018-12-17T09:24:42.437Z,143.25
2018-12-17T09:25:46.133Z,146.55
2018-12-17T09:26:49.894Z,137.18
2018-12-17T09:27:53.617Z,162.60
2018-12-17T09:28:57.382Z,145.70
2018-12-17T09:30:01.115Z,149.25
2018-12-17T09:31:04.862Z,153.27
2018-12-17T09:32:08.561Z,176.50
2018-12-17T09:33:12.249Z,172.05
2018-12-17T09:34:15.886Z,137.40
2018-12-17T09:35:19.569Z,146.93
2018-12-17T09:36:23.202Z,150.68
2018-12-17T09:37:26.966Z,149.97
2018-12-17T09:38:30.702Z,142.07
2018-12-17T09:39:34.496Z,136.45
2018-12-17T09:40:38.069Z,148.50
2018-12-17T09:41:41.828Z,140.47
2018-12-17T09:42:45.592Z,139.45
2018-12-17T09:43:49.353Z,132.22
2018-12-17T09:44:53.061Z,144.93
2018-12-17T09:45:56.685Z,139.00
2018-12-17T09:47:00.358Z,141.03
2018-12-17T09:48:04.224Z,133.37
2018-12-17T09:49:07.921Z,153.60
2018-12-17T09:50:11.709Z,133.15
2018-12-17T09:51:19.552Z,144.67
2018-12-17T09:52:21.629Z,140.07
2018-12-17T09:53:25.365Z,140.12
2018-12-17T09:54:28.973Z,132.75
2018-12-17T09:55:32.977Z,142.95
2018-12-17T09:56:36.633Z,144.35
2018-12-17T09:57:40.334Z,145.82
2018-12-17T09:58:43.949Z,146.75
2018-12-17T09:59:47.640Z,142.53
2018-12-17T10:00:51.272Z,144.62
2018-12-17T10:01:55.016Z,133.55
2018-12-17T10:02:58.710Z,146.02
2018-12-17T10:04:02.364Z,136.68
2018-12-17T10:05:06.054Z,140.60
2018-12-17T10:06:09.805Z,154.10
2018-12-17T10:07:13.489Z,146.40
2018-12-17T10:08:17.121Z,146.18
2018-12-17T10:09:21.185Z,150.03
2018-12-17T10:10:24.825Z,147.98
2018-12-17T10:11:28.590Z,138.77
2018-12-17T10:12:32.454Z,127.70
2018-12-17T10:13:36.109Z,123.22
2018-12-17T10:14:40.393Z,144.50
2018-12-17T10:15:44.027Z,144.57
2018-12-17T10:16:47.658Z,156.82
2018-12-17T10:17:51.283Z,162.03
2018-12-17T10:18:54.981Z,161.32
2018-12-17T10:19:58.597Z,148.20
2018-12-17T10:21:02.287Z,181.93
2018-12-17T10:22:05.969Z,176.12
2018-12-17T10:23:09.618Z,163.05
2018-12-17T10:24:13.410Z,163.72
2018-12-17T10:25:17.118Z,167.10
2018-12-17T10:26:20.890Z,158.10
2018-12-17T10:27:24.572Z,161.30
2018-12-17T10:28:28.273Z,172.72
2018-12-17T10:29:32.053Z,165.77
2018-12-17T10:30:35.828Z,159.82
2018-12-17T10:31:39.539Z,162.82
2018-12-17T10:32:43.241Z,168.52
2018-12-17T10:33:46.870Z,157.90
2018-12-17T10:34:50.493Z,162.30
2018-12-17T10:35:54.112Z,175.42
2018-12-17T10:36:57.794Z,169.68
2018-12-17T10:38:01.411Z,170.70
2018-12-17T10:39:07.010Z,160.00
2018-12-17T10:40:10.846Z,173.07
2018-12-17T10:41:14.474Z,154.95
2018-12-17T10:42:18.094Z,160.85
2018-12-17T10:43:21.791Z,169.30
2018-12-17T10:44:25.435Z,162.12
2018-12-17T10:45:29.306Z,150.57
2018-12-17T10:46:33.069Z,169.05
2018-12-17T10:47:36.797Z,155.55
2018-12-17T10:48:40.465Z,158.68
2018-12-17T10:49:44.126Z,166.47
2018-12-17T10:50:47.737Z,170.92
2018-12-17T10:51:51.366Z,154.90
2018-12-17T10:52:55.178Z,151.80
2018-12-17T10:53:59.017Z,170.90
2018-12-17T10:55:02.902Z,179.65
2018-12-17T10:56:06.515Z,163.82
2018-12-17T10:57:10.325Z,163.22
2018-12-17T10:58:14.074Z,177.12
2018-12-17T10:59:17.802Z,176.57
2018-12-17T11:00:26.878Z,176.12
2018-12-17T11:01:36.164Z,184.80
2018-12-17T11:02:39.917Z,177.22
2018-12-17T11:03:48.224Z,181.55
2018-12-17T11:05:05.007Z,183.90
2018-12-17T11:06:14.192Z,168.30
2018-12-17T11:07:17.892Z,180.33
2018-12-17T11:08:21.533Z,184.57
2018-12-17T11:09:25.234Z,184.70
2018-12-17T11:10:29.031Z,181.30
2018-12-17T11:11:32.725Z,179.07
2018-12-17T11:12:36.942Z,179.27
2018-12-17T11:13:40.629Z,171.98
2018-12-17T11:14:44.418Z,191.62
2018-12-17T11:15:48.110Z,196.22
2018-12-17T11:16:51.803Z,200.97
2018-12-17T11:17:55.382Z,187.88
2018-12-17T11:18:59.073Z,213.43
2018-12-17T11:20:02.845Z,180.35
2018-12-17T11:21:06.534Z,172.68
2018-12-17T11:22:10.183Z,199.70
2018-12-17T11:23:13.870Z,188.20
2018-12-17T11:24:17.653Z,195.50
2018-12-17T11:25:21.263Z,190.12
2018-12-17T11:26:24.890Z,185.57
2018-12-17T11:27:28.527Z,178.07
2018-12-17T11:28:32.220Z,168.95
2018-12-17T11:29:35.903Z,182.37
2018-12-17T11:30:46.318Z,182.47
2018-12-17T11:31:45.244Z,165.50
2018-12-17T11:32:48.931Z,178.20
2018-12-17T11:33:52.618Z,168.37
2018-12-17T11:34:56.549Z,171.62
2018-12-17T11:36:00.185Z,176.78
2018-12-17T11:37:03.882Z,154.60
2018-12-17T11:38:07.503Z,170.12
2018-12-17T11:39:11.214Z,173.90
2018-12-17T11:40:14.990Z,163.32
2018-12-17T11:41:18.666Z,156.67
2018-12-17T11:42:22.346Z,161.17
2018-12-17T11:43:25.976Z,166.35
2018-12-17T11:44:30.375Z,169.43
2018-12-17T11:45:34.061Z,153.47
2018-12-17T11:46:37.759Z,176.43
2018-12-17T11:47:41.454Z,157.62
2018-12-17T11:48:45.249Z,158.63
2018-12-17T11:49:48.960Z,157.25
2018-12-17T11:50:52.598Z,158.12
2018-12-17T11:51:56.330Z,158.45
2018-12-17T11:52:59.910Z,154.80
2018-12-17T11:54:03.713Z,147.70
2018-12-17T11:55:07.439Z,153.42
2018-12-17T11:56:11.202Z,148.73
2018-12-17T11:57:43.133Z,151.05
2018-12-17T11:58:46.853Z,156.90
2018-12-17T11:59:50.583Z,143.37
2018-12-17T12:01:02.142Z,157.33
2018-12-17T12:02:05.830Z,146.98
2018-12-17T12:03:09.525Z,145.70
2018-12-17T12:04:13.451Z,152.97
2018-12-17T12:05:17.302Z,159.72
2018-12-17T12:06:20.985Z,155.00
2018-12-17T12:07:24.609Z,160.88
2018-12-17T12:08:28.375Z,160.37
2018-12-17T12:09:36.423Z,153.87
2018-12-17T12:10:40.252Z,157.60
2018-12-17T12:11:43.958Z,147.65
2018-12-17T12:12:47.586Z,155.60
2018-12-17T12:13:51.220Z,139.33
2018-12-17T12:14:54.926Z,140.70
2018-12-17T12:15:58.634Z,137.90
2018-12-17T12:17:02.259Z,150.23
2018-12-17T12:18:05.954Z,150.83
2018-12-17T12:19:09.622Z,139.20
2018-12-17T12:20:13.403Z,142.57
2018-12-17T12:21:17.087Z,133.20
2018-12-17T12:22:20.774Z,126.85
2018-12-17T12:23:24.396Z,135.80
2018-12-17T12:24:28.068Z,134.77
2018-12-17T12:25:31.826Z,131.40
2018-12-17T12:26:35.589Z,118.93
2018-12-17T12:27:39.221Z,128.47
2018-12-17T12:28:42.942Z,120.75
2018-12-17T12:29:46.640Z,117.53
2018-12-17T12:30:50.432Z,124.07
2018-12-17T12:31:54.026Z,121.17
2018-12-17T12:32:57.774Z,129.47
2018-12-17T12:34:01.409Z,121.07
2018-12-17T12:35:05.947Z,113.83
2018-12-17T12:36:09.637Z,111.43
2018-12-17T12:37:13.407Z,113.05
2018-12-17T12:38:17.099Z,116.93
2018-12-17T12:39:20.670Z,120.90
2018-12-17T12:40:24.366Z,105.40
2018-12-17T12:41:27.998Z,110.25
2018-12-17T12:42:31.685Z,109.37
2018-12-17T12:43:35.374Z,104.40
2018-12-17T12:44:38.993Z,98.37
2018-12-17T12:45:42.677Z,89.57
2018-12-17T12:46:46.373Z,100.13
2018-12-17T12:47:50.065Z,107.67
2018-12-17T12:48:53.729Z,103.60
2018-12-17T12:49:57.411Z,103.90
2018-12-17T12:51:01.016Z,99.97
2018-12-17T12:52:04.710Z,98.25
2018-12-17T12:53:08.370Z,105.97
2018-12-17T12:54:12.078Z,97.70
2018-12-17T12:55:16.694Z,98.42
2018-12-17T12:56:20.387Z,102.45
2018-12-17T12:57:24.080Z,104.72
2018-12-17T12:58:27.742Z,95.97
2018-12-17T12:59:31.434Z,103.72
2018-12-17T13:00:35.054Z,105.37
2018-12-17T13:01:38.757Z,98.85
2018-12-17T13:02:42.513Z,103.55
2018-12-17T13:03:46.134Z,104.53
2018-12-17T13:04:50.614Z,110.52
2018-12-17T13:05:54.466Z,91.17
2018-12-17T13:06:58.173Z,110.92
2018-12-17T13:08:01.857Z,117.80
2018-12-17T13:09:07.113Z,100.33
2018-12-17T13:10:11.230Z,100.57
2018-12-17T13:11:14.942Z,94.73
2018-12-17T13:12:18.558Z,102.03
2018-12-17T13:13:22.250Z,107.80
2018-12-17T13:14:25.869Z,100.87
2018-12-17T13:15:29.493Z,103.67
2018-12-17T13:16:33.188Z,108.87
2018-12-17T13:17:37.211Z,106.57
2018-12-17T13:18:40.834Z,103.97
2018-12-17T13:19:44.441Z,108.33
2018-12-17T13:20:48.188Z,100.03
2018-12-17T13:21:51.882Z,104.20
2018-12-17T13:22:55.546Z,106.40
2018-12-17T13:23:59.237Z,108.60
2018-12-17T13:25:03.070Z,110.67
2018-12-17T13:26:06.910Z,110.27
2018-12-17T13:27:10.601Z,104.20
2018-12-17T13:28:14.221Z,110.53
2018-12-17T13:29:17.844Z,113.23
2018-12-17T13:30:21.526Z,111.70
2018-12-17T13:31:25.206Z,113.68
2018-12-17T13:32:28.822Z,102.97
2018-12-17T13:33:32.510Z,107.87